sensor_id;sensor_type;location;lat;lon;timestamp;temperature;humidity
2389;DHT22;1205;47.984;7.668;2022-08-19T00:00:26;20.60;99.90
2389;DHT22;1205;47.984;7.668;2022-08-19T00:02:53;20.60;99.90
2389;DHT22;1205;47.984;7.668;2022-08-19T00:05:19;20.70;99.90
2389;DHT22;1205;47.984;7.668;2022-08-19T00:07:45;20.60;99.90
2389;DHT22;1205;47.984;7.668;2022-08-19T00:10:13;20.50;99.90
2389;DHT22;1205;47.984;7.668;2022-08-19T00:12:40;20.40;99.90
2389;DHT22;1205;47.984;7.668;2022-08-19T00:15:09;20.50;99.90
2389;DHT22;1205;47.984;7.668;2022-08-19T00:17:40;20.50;99.90
2389;DHT22;1205;47.984;7.668;2022-08-19T00:20:07;20.60;99.90
2389;DHT22;1205;47.984;7.668;2022-08-19T00:22:34;20.60;99.90
2389;DHT22;1205;47.984;7.668;2022-08-19T00:24:59;20.60;99.90
2389;DHT22;1205;47.984;7.668;2022-08-19T00:27:25;20.50;99.90
2389;DHT22;1205;47.984;7.668;2022-08-19T00:29:51;20.50;99.90
2389;DHT22;1205;47.984;7.668;2022-08-19T00:32:17;20.50;99.90
2389;DHT22;1205;47.984;7.668;2022-08-19T00:34:42;20.40;99.90
2389;DHT22;1205;47.984;7.668;2022-08-19T00:37:09;20.40;99.90
2389;DHT22;1205;47.984;7.668;2022-08-19T00:39:35;20.50;99.90
2389;DHT22;1205;47.984;7.668;2022-08-19T00:42:01;20.40;99.90
2389;DHT22;1205;47.984;7.668;2022-08-19T00:44:28;20.40;99.90
2389;DHT22;1205;47.984;7.668;2022-08-19T00:46:58;20.50;99.90
2389;DHT22;1205;47.984;7.668;2022-08-19T00:49:36;20.50;99.90
2389;DHT22;1205;47.984;7.668;2022-08-19T00:52:08;20.40;99.90
2389;DHT22;1205;47.984;7.668;2022-08-19T00:54:36;20.50;99.90
2389;DHT22;1205;47.984;7.668;2022-08-19T00:57:06;20.50;99.90
2389;DHT22;1205;47.984;7.668;2022-08-19T00:59:35;20.50;99.90
2389;DHT22;1205;47.984;7.668;2022-08-19T01:02:02;20.60;99.90
2389;DHT22;1205;47.984;7.668;2022-08-19T01:04:28;20.60;99.90
2389;DHT22;1205;47.984;7.668;2022-08-19T01:06:55;20.60;99.90
2389;DHT22;1205;47.984;7.668;2022-08-19T01:09:21;20.60;99.90
2389;DHT22;1205;47.984;7.668;2022-08-19T01:11:47;20.70;99.90
2389;DHT22;1205;47.984;7.668;2022-08-19T01:14:13;20.80;99.90
2389;DHT22;1205;47.984;7.668;2022-08-19T01:16:40;20.80;99.90
2389;DHT22;1205;47.984;7.668;2022-08-19T01:19:27;20.80;99.90
2389;DHT22;1205;47.984;7.668;2022-08-19T01:22:00;20.70;99.90
2389;DHT22;1205;47.984;7.668;2022-08-19T01:24:26;20.60;99.90
2389;DHT22;1205;47.984;7.668;2022-08-19T01:26:52;20.70;99.90
2389;DHT22;1205;47.984;7.668;2022-08-19T01:29:18;20.60;99.90
2389;DHT22;1205;47.984;7.668;2022-08-19T01:31:43;20.60;99.90
2389;DHT22;1205;47.984;7.668;2022-08-19T01:34:09;20.60;99.90
2389;DHT22;1205;47.984;7.668;2022-08-19T01:36:43;20.50;99.90
2389;DHT22;1205;47.984;7.668;2022-08-19T01:39:18;20.50;99.90
2389;DHT22;1205;47.984;7.668;2022-08-19T01:41:44;20.50;99.90
2389;DHT22;1205;47.984;7.668;2022-08-19T01:44:11;20.50;99.90
2389;DHT22;1205;47.984;7.668;2022-08-19T01:46:37;20.50;99.90
2389;DHT22;1205;47.984;7.668;2022-08-19T01:49:04;20.50;99.90
2389;DHT22;1205;47.984;7.668;2022-08-19T01:51:29;20.60;99.90
2389;DHT22;1205;47.984;7.668;2022-08-19T01:53:56;20.50;99.90
2389;DHT22;1205;47.984;7.668;2022-08-19T01:56:22;20.50;99.90
2389;DHT22;1205;47.984;7.668;2022-08-19T01:58:52;20.50;99.90
2389;DHT22;1205;47.984;7.668;2022-08-19T02:01:19;20.40;99.90
2389;DHT22;1205;47.984;7.668;2022-08-19T02:03:45;20.40;99.90
2389;DHT22;1205;47.984;7.668;2022-08-19T02:06:11;20.40;99.90
2389;DHT22;1205;47.984;7.668;2022-08-19T02:08:38;20.40;99.90
2389;DHT22;1205;47.984;7.668;2022-08-19T02:11:05;20.30;99.90
2389;DHT22;1205;47.984;7.668;2022-08-19T02:13:32;20.20;99.90
2389;DHT22;1205;47.984;7.668;2022-08-19T02:15:57;20.20;99.90
2389;DHT22;1205;47.984;7.668;2022-08-19T02:18:23;20.20;99.90
2389;DHT22;1205;47.984;7.668;2022-08-19T02:20:49;20.10;99.90
2389;DHT22;1205;47.984;7.668;2022-08-19T02:23:15;20.10;99.90
2389;DHT22;1205;47.984;7.668;2022-08-19T02:25:44;20.20;99.90
2389;DHT22;1205;47.984;7.668;2022-08-19T02:28:10;20.20;99.90
2389;DHT22;1205;47.984;7.668;2022-08-19T02:30:37;20.20;99.90
2389;DHT22;1205;47.984;7.668;2022-08-19T02:33:04;20.20;99.90
2389;DHT22;1205;47.984;7.668;2022-08-19T02:35:30;20.30;99.90
2389;DHT22;1205;47.984;7.668;2022-08-19T02:37:56;20.30;99.90
2389;DHT22;1205;47.984;7.668;2022-08-19T02:40:40;20.20;99.90
2389;DHT22;1205;47.984;7.668;2022-08-19T02:43:07;20.20;99.90
2389;DHT22;1205;47.984;7.668;2022-08-19T02:45:35;20.20;99.90
2389;DHT22;1205;47.984;7.668;2022-08-19T02:48:01;20.20;99.90
2389;DHT22;1205;47.984;7.668;2022-08-19T02:50:27;20.20;99.90
2389;DHT22;1205;47.984;7.668;2022-08-19T02:52:52;20.20;99.90
2389;DHT22;1205;47.984;7.668;2022-08-19T02:55:18;20.10;99.90
2389;DHT22;1205;47.984;7.668;2022-08-19T02:57:44;20.10;99.90
2389;DHT22;1205;47.984;7.668;2022-08-19T03:00:10;20.10;99.90
2389;DHT22;1205;47.984;7.668;2022-08-19T03:02:39;20.10;99.90
2389;DHT22;1205;47.984;7.668;2022-08-19T03:05:06;20.10;99.90
2389;DHT22;1205;47.984;7.668;2022-08-19T03:07:32;20.10;99.90
2389;DHT22;1205;47.984;7.668;2022-08-19T03:09:58;20.00;99.90
2389;DHT22;1205;47.984;7.668;2022-08-19T03:12:24;20.00;99.90
2389;DHT22;1205;47.984;7.668;2022-08-19T03:14:50;20.00;99.90
2389;DHT22;1205;47.984;7.668;2022-08-19T03:17:16;20.00;99.90
2389;DHT22;1205;47.984;7.668;2022-08-19T03:19:42;20.00;99.90
2389;DHT22;1205;47.984;7.668;2022-08-19T03:22:08;20.00;99.90
2389;DHT22;1205;47.984;7.668;2022-08-19T03:24:34;20.00;99.90
2389;DHT22;1205;47.984;7.668;2022-08-19T03:27:00;19.90;99.90
2389;DHT22;1205;47.984;7.668;2022-08-19T03:29:27;20.00;99.90
2389;DHT22;1205;47.984;7.668;2022-08-19T03:31:53;19.90;99.90
2389;DHT22;1205;47.984;7.668;2022-08-19T03:34:23;19.90;99.90
2389;DHT22;1205;47.984;7.668;2022-08-19T03:36:52;19.90;99.90
2389;DHT22;1205;47.984;7.668;2022-08-19T03:39:18;19.90;99.90
2389;DHT22;1205;47.984;7.668;2022-08-19T03:41:46;19.90;99.90
2389;DHT22;1205;47.984;7.668;2022-08-19T03:44:13;20.00;99.90
2389;DHT22;1205;47.984;7.668;2022-08-19T03:46:39;20.10;99.90
2389;DHT22;1205;47.984;7.668;2022-08-19T03:49:05;20.00;99.90
2389;DHT22;1205;47.984;7.668;2022-08-19T03:51:37;19.90;99.90
2389;DHT22;1205;47.984;7.668;2022-08-19T03:54:06;19.90;99.90
2389;DHT22;1205;47.984;7.668;2022-08-19T03:56:34;19.90;99.90
2389;DHT22;1205;47.984;7.668;2022-08-19T03:59:02;19.90;99.90
2389;DHT22;1205;47.984;7.668;2022-08-19T04:01:29;19.90;99.90
2389;DHT22;1205;47.984;7.668;2022-08-19T04:03:58;19.80;99.90
2389;DHT22;1205;47.984;7.668;2022-08-19T04:06:35;19.90;99.90
2389;DHT22;1205;47.984;7.668;2022-08-19T04:09:03;19.90;99.90
2389;DHT22;1205;47.984;7.668;2022-08-19T04:11:42;20.00;99.90
2389;DHT22;1205;47.984;7.668;2022-08-19T04:14:15;20.00;99.90
2389;DHT22;1205;47.984;7.668;2022-08-19T04:16:41;19.90;99.90
2389;DHT22;1205;47.984;7.668;2022-08-19T04:19:09;20.00;99.90
2389;DHT22;1205;47.984;7.668;2022-08-19T04:21:35;19.90;99.90
2389;DHT22;1205;47.984;7.668;2022-08-19T04:24:02;20.00;99.90
2389;DHT22;1205;47.984;7.668;2022-08-19T04:26:31;19.90;99.90
2389;DHT22;1205;47.984;7.668;2022-08-19T04:29:06;19.90;99.90
2389;DHT22;1205;47.984;7.668;2022-08-19T04:31:32;20.10;99.90
2389;DHT22;1205;47.984;7.668;2022-08-19T04:34:03;20.20;99.90
2389;DHT22;1205;47.984;7.668;2022-08-19T04:36:33;20.10;99.90
2389;DHT22;1205;47.984;7.668;2022-08-19T04:39:03;20.00;99.90
2389;DHT22;1205;47.984;7.668;2022-08-19T04:41:28;20.00;99.90
2389;DHT22;1205;47.984;7.668;2022-08-19T04:44:13;20.00;99.90
2389;DHT22;1205;47.984;7.668;2022-08-19T04:46:39;20.10;99.90
2389;DHT22;1205;47.984;7.668;2022-08-19T04:49:06;20.10;99.90
2389;DHT22;1205;47.984;7.668;2022-08-19T04:51:33;20.10;99.90
2389;DHT22;1205;47.984;7.668;2022-08-19T04:53:59;20.10;99.90
2389;DHT22;1205;47.984;7.668;2022-08-19T04:56:26;20.10;99.90
2389;DHT22;1205;47.984;7.668;2022-08-19T04:58:54;20.10;99.90
2389;DHT22;1205;47.984;7.668;2022-08-19T05:01:25;20.10;99.90
2389;DHT22;1205;47.984;7.668;2022-08-19T05:03:52;20.20;99.90
2389;DHT22;1205;47.984;7.668;2022-08-19T05:06:21;20.10;99.90
2389;DHT22;1205;47.984;7.668;2022-08-19T05:08:48;20.20;99.90
2389;DHT22;1205;47.984;7.668;2022-08-19T05:11:19;20.00;99.90
2389;DHT22;1205;47.984;7.668;2022-08-19T05:13:46;20.00;99.90
2389;DHT22;1205;47.984;7.668;2022-08-19T05:16:14;20.10;99.90
2389;DHT22;1205;47.984;7.668;2022-08-19T05:18:40;20.20;99.90
2389;DHT22;1205;47.984;7.668;2022-08-19T05:21:26;20.30;99.90
2389;DHT22;1205;47.984;7.668;2022-08-19T05:24:10;20.30;99.90
2389;DHT22;1205;47.984;7.668;2022-08-19T05:26:39;20.40;99.90
2389;DHT22;1205;47.984;7.668;2022-08-19T05:29:06;20.20;99.90
2389;DHT22;1205;47.984;7.668;2022-08-19T05:31:33;20.20;99.90
2389;DHT22;1205;47.984;7.668;2022-08-19T05:33:58;20.20;99.90
2389;DHT22;1205;47.984;7.668;2022-08-19T05:36:26;20.30;99.90
2389;DHT22;1205;47.984;7.668;2022-08-19T05:38:52;20.30;99.90
2389;DHT22;1205;47.984;7.668;2022-08-19T05:41:19;20.40;99.90
2389;DHT22;1205;47.984;7.668;2022-08-19T05:43:45;20.40;99.90
2389;DHT22;1205;47.984;7.668;2022-08-19T05:46:17;20.40;99.90
2389;DHT22;1205;47.984;7.668;2022-08-19T05:48:43;20.40;99.90
2389;DHT22;1205;47.984;7.668;2022-08-19T05:51:09;20.40;99.90
2389;DHT22;1205;47.984;7.668;2022-08-19T05:53:36;20.50;99.90
2389;DHT22;1205;47.984;7.668;2022-08-19T05:56:06;20.40;99.90
2389;DHT22;1205;47.984;7.668;2022-08-19T05:58:33;20.40;99.90
2389;DHT22;1205;47.984;7.668;2022-08-19T06:00:59;20.40;99.90
2389;DHT22;1205;47.984;7.668;2022-08-19T06:03:30;20.40;99.90
2389;DHT22;1205;47.984;7.668;2022-08-19T06:05:56;20.40;99.90
2389;DHT22;1205;47.984;7.668;2022-08-19T06:08:23;20.50;99.90
2389;DHT22;1205;47.984;7.668;2022-08-19T06:10:49;20.70;99.90
2389;DHT22;1205;47.984;7.668;2022-08-19T06:13:15;20.70;99.90
2389;DHT22;1205;47.984;7.668;2022-08-19T06:15:40;20.60;99.90
2389;DHT22;1205;47.984;7.668;2022-08-19T06:18:09;20.60;99.90
2389;DHT22;1205;47.984;7.668;2022-08-19T06:20:34;20.70;99.90
2389;DHT22;1205;47.984;7.668;2022-08-19T06:23:00;20.70;99.90
2389;DHT22;1205;47.984;7.668;2022-08-19T06:25:25;20.70;99.90
2389;DHT22;1205;47.984;7.668;2022-08-19T06:27:51;20.60;99.90
2389;DHT22;1205;47.984;7.668;2022-08-19T06:30:18;20.80;99.90
2389;DHT22;1205;47.984;7.668;2022-08-19T06:32:43;20.80;99.90
2389;DHT22;1205;47.984;7.668;2022-08-19T06:35:09;20.80;99.90
2389;DHT22;1205;47.984;7.668;2022-08-19T06:37:37;21.00;99.90
2389;DHT22;1205;47.984;7.668;2022-08-19T06:40:03;21.20;99.90
2389;DHT22;1205;47.984;7.668;2022-08-19T06:42:29;21.30;99.90
2389;DHT22;1205;47.984;7.668;2022-08-19T06:44:55;21.40;99.90
2389;DHT22;1205;47.984;7.668;2022-08-19T06:47:23;21.40;99.90
2389;DHT22;1205;47.984;7.668;2022-08-19T06:49:49;21.50;99.90
2389;DHT22;1205;47.984;7.668;2022-08-19T06:52:15;21.60;99.90
2389;DHT22;1205;47.984;7.668;2022-08-19T06:54:41;21.60;99.90
2389;DHT22;1205;47.984;7.668;2022-08-19T06:57:07;21.70;99.90
2389;DHT22;1205;47.984;7.668;2022-08-19T06:59:38;21.80;99.90
2389;DHT22;1205;47.984;7.668;2022-08-19T07:02:05;21.80;99.90
2389;DHT22;1205;47.984;7.668;2022-08-19T07:04:33;21.90;99.90
2389;DHT22;1205;47.984;7.668;2022-08-19T07:07:11;22.00;99.90
2389;DHT22;1205;47.984;7.668;2022-08-19T07:09:39;22.10;99.90
2389;DHT22;1205;47.984;7.668;2022-08-19T07:12:07;22.20;99.90
2389;DHT22;1205;47.984;7.668;2022-08-19T07:14:35;22.20;99.90
2389;DHT22;1205;47.984;7.668;2022-08-19T07:17:06;22.30;99.90
2389;DHT22;1205;47.984;7.668;2022-08-19T07:19:33;22.40;99.90
2389;DHT22;1205;47.984;7.668;2022-08-19T07:22:01;22.30;99.90
2389;DHT22;1205;47.984;7.668;2022-08-19T07:24:29;22.00;99.90
2389;DHT22;1205;47.984;7.668;2022-08-19T07:26:57;22.20;99.90
2389;DHT22;1205;47.984;7.668;2022-08-19T07:29:26;22.30;99.90
2389;DHT22;1205;47.984;7.668;2022-08-19T07:31:52;22.40;99.90
2389;DHT22;1205;47.984;7.668;2022-08-19T07:34:21;22.50;99.90
2389;DHT22;1205;47.984;7.668;2022-08-19T07:36:49;22.60;99.90
2389;DHT22;1205;47.984;7.668;2022-08-19T07:39:18;22.70;99.90
2389;DHT22;1205;47.984;7.668;2022-08-19T07:41:45;22.90;99.90
2389;DHT22;1205;47.984;7.668;2022-08-19T07:44:11;22.90;99.90
2389;DHT22;1205;47.984;7.668;2022-08-19T07:46:40;23.10;99.90
2389;DHT22;1205;47.984;7.668;2022-08-19T07:49:07;23.20;99.90
2389;DHT22;1205;47.984;7.668;2022-08-19T07:51:33;23.30;99.90
2389;DHT22;1205;47.984;7.668;2022-08-19T07:53:59;23.30;99.90
2389;DHT22;1205;47.984;7.668;2022-08-19T07:56:25;23.40;99.90
2389;DHT22;1205;47.984;7.668;2022-08-19T07:58:52;23.40;99.90
2389;DHT22;1205;47.984;7.668;2022-08-19T08:01:21;23.40;99.90
2389;DHT22;1205;47.984;7.668;2022-08-19T08:03:48;23.50;99.90
2389;DHT22;1205;47.984;7.668;2022-08-19T08:06:32;23.50;99.90
2389;DHT22;1205;47.984;7.668;2022-08-19T08:09:19;23.60;99.90
2389;DHT22;1205;47.984;7.668;2022-08-19T08:11:51;23.60;99.90
2389;DHT22;1205;47.984;7.668;2022-08-19T08:14:21;23.60;99.90
2389;DHT22;1205;47.984;7.668;2022-08-19T08:16:49;23.70;99.90
2389;DHT22;1205;47.984;7.668;2022-08-19T08:19:16;23.70;99.90
2389;DHT22;1205;47.984;7.668;2022-08-19T08:21:42;23.80;99.90
2389;DHT22;1205;47.984;7.668;2022-08-19T08:24:08;23.90;99.90
2389;DHT22;1205;47.984;7.668;2022-08-19T08:26:34;23.90;99.90
2389;DHT22;1205;47.984;7.668;2022-08-19T08:29:00;23.80;99.90
2389;DHT22;1205;47.984;7.668;2022-08-19T08:31:25;23.80;99.90
2389;DHT22;1205;47.984;7.668;2022-08-19T08:33:51;23.80;99.90
2389;DHT22;1205;47.984;7.668;2022-08-19T08:36:17;23.70;99.90
2389;DHT22;1205;47.984;7.668;2022-08-19T08:38:44;23.80;99.90
2389;DHT22;1205;47.984;7.668;2022-08-19T08:44:00;23.70;99.90
2389;DHT22;1205;47.984;7.668;2022-08-19T08:46:57;23.80;99.90
2389;DHT22;1205;47.984;7.668;2022-08-19T08:49:33;23.80;99.90
2389;DHT22;1205;47.984;7.668;2022-08-19T08:54:48;23.80;99.90
2389;DHT22;1205;47.984;7.668;2022-08-19T08:57:30;23.80;99.90
2389;DHT22;1205;47.984;7.668;2022-08-19T09:00:02;23.90;99.90
2389;DHT22;1205;47.984;7.668;2022-08-19T09:02:30;23.90;99.90
2389;DHT22;1205;47.984;7.668;2022-08-19T09:04:56;24.00;99.90
2389;DHT22;1205;47.984;7.668;2022-08-19T09:07:29;24.00;99.90
2389;DHT22;1205;47.984;7.668;2022-08-19T09:10:49;24.00;99.90
2389;DHT22;1205;47.984;7.668;2022-08-19T09:13:18;24.10;99.90
2389;DHT22;1205;47.984;7.668;2022-08-19T09:16:12;24.00;99.90
2389;DHT22;1205;47.984;7.668;2022-08-19T09:18:44;23.80;99.90
2389;DHT22;1205;47.984;7.668;2022-08-19T09:21:13;24.10;99.90
2389;DHT22;1205;47.984;7.668;2022-08-19T09:23:38;24.20;99.90
2389;DHT22;1205;47.984;7.668;2022-08-19T09:26:09;24.20;99.90
2389;DHT22;1205;47.984;7.668;2022-08-19T09:28:39;24.20;99.90
2389;DHT22;1205;47.984;7.668;2022-08-19T09:31:06;24.10;99.90
2389;DHT22;1205;47.984;7.668;2022-08-19T09:33:32;24.30;99.90
2389;DHT22;1205;47.984;7.668;2022-08-19T09:36:07;24.30;99.90
2389;DHT22;1205;47.984;7.668;2022-08-19T09:38:34;24.50;99.90
2389;DHT22;1205;47.984;7.668;2022-08-19T09:41:05;24.60;99.90
2389;DHT22;1205;47.984;7.668;2022-08-19T09:43:32;24.60;99.90
2389;DHT22;1205;47.984;7.668;2022-08-19T09:45:59;24.60;99.90
2389;DHT22;1205;47.984;7.668;2022-08-19T09:48:26;24.70;99.90
2389;DHT22;1205;47.984;7.668;2022-08-19T09:50:51;24.70;99.90
2389;DHT22;1205;47.984;7.668;2022-08-19T09:53:17;24.80;99.90
2389;DHT22;1205;47.984;7.668;2022-08-19T09:55:43;24.60;99.90
2389;DHT22;1205;47.984;7.668;2022-08-19T09:58:09;24.60;99.90
2389;DHT22;1205;47.984;7.668;2022-08-19T10:00:37;24.50;99.90
2389;DHT22;1205;47.984;7.668;2022-08-19T10:03:03;24.40;99.90
2389;DHT22;1205;47.984;7.668;2022-08-19T10:05:29;24.50;99.90
2389;DHT22;1205;47.984;7.668;2022-08-19T10:08:14;24.50;99.90
2389;DHT22;1205;47.984;7.668;2022-08-19T10:10:41;24.50;99.90
2389;DHT22;1205;47.984;7.668;2022-08-19T10:13:11;24.70;99.90
2389;DHT22;1205;47.984;7.668;2022-08-19T10:15:37;24.90;99.90
2389;DHT22;1205;47.984;7.668;2022-08-19T10:18:05;25.00;99.90
2389;DHT22;1205;47.984;7.668;2022-08-19T10:20:31;25.10;99.90
2389;DHT22;1205;47.984;7.668;2022-08-19T10:22:57;24.90;99.90
2389;DHT22;1205;47.984;7.668;2022-08-19T10:25:25;24.90;99.90
2389;DHT22;1205;47.984;7.668;2022-08-19T10:27:52;25.00;99.90
2389;DHT22;1205;47.984;7.668;2022-08-19T10:30:18;25.20;99.90
2389;DHT22;1205;47.984;7.668;2022-08-19T10:32:50;25.20;99.90
2389;DHT22;1205;47.984;7.668;2022-08-19T10:35:15;25.20;99.90
2389;DHT22;1205;47.984;7.668;2022-08-19T10:37:42;25.30;99.90
2389;DHT22;1205;47.984;7.668;2022-08-19T10:40:08;25.30;99.90
2389;DHT22;1205;47.984;7.668;2022-08-19T10:42:36;25.50;99.90
2389;DHT22;1205;47.984;7.668;2022-08-19T10:45:03;25.60;99.90
2389;DHT22;1205;47.984;7.668;2022-08-19T10:47:31;25.40;99.90
2389;DHT22;1205;47.984;7.668;2022-08-19T10:49:57;25.60;99.90
2389;DHT22;1205;47.984;7.668;2022-08-19T10:52:44;25.60;99.90
2389;DHT22;1205;47.984;7.668;2022-08-19T10:55:10;25.50;99.90
2389;DHT22;1205;47.984;7.668;2022-08-19T10:57:54;25.50;99.90
2389;DHT22;1205;47.984;7.668;2022-08-19T11:00:22;25.50;99.90
2389;DHT22;1205;47.984;7.668;2022-08-19T11:02:48;25.30;99.90
2389;DHT22;1205;47.984;7.668;2022-08-19T11:05:14;25.30;99.90
2389;DHT22;1205;47.984;7.668;2022-08-19T11:07:41;25.60;99.90
2389;DHT22;1205;47.984;7.668;2022-08-19T11:10:09;25.50;99.90
2389;DHT22;1205;47.984;7.668;2022-08-19T11:12:37;25.50;99.90
2389;DHT22;1205;47.984;7.668;2022-08-19T11:15:05;25.80;99.90
2389;DHT22;1205;47.984;7.668;2022-08-19T11:17:32;25.80;99.90
2389;DHT22;1205;47.984;7.668;2022-08-19T11:19:58;25.80;99.90
2389;DHT22;1205;47.984;7.668;2022-08-19T11:22:27;25.90;99.90
2389;DHT22;1205;47.984;7.668;2022-08-19T11:24:53;26.00;99.90
2389;DHT22;1205;47.984;7.668;2022-08-19T11:27:20;26.10;99.60
2389;DHT22;1205;47.984;7.668;2022-08-19T11:29:46;25.90;99.70
2389;DHT22;1205;47.984;7.668;2022-08-19T11:32:11;25.90;99.30
2389;DHT22;1205;47.984;7.668;2022-08-19T11:34:38;25.80;99.70
2389;DHT22;1205;47.984;7.668;2022-08-19T11:37:04;25.90;99.50
2389;DHT22;1205;47.984;7.668;2022-08-19T11:39:32;26.00;99.20
2389;DHT22;1205;47.984;7.668;2022-08-19T11:41:59;26.00;99.00
2389;DHT22;1205;47.984;7.668;2022-08-19T11:44:26;25.90;98.60
2389;DHT22;1205;47.984;7.668;2022-08-19T11:46:56;25.90;98.80
2389;DHT22;1205;47.984;7.668;2022-08-19T11:49:21;25.90;99.10
2389;DHT22;1205;47.984;7.668;2022-08-19T11:51:48;26.00;99.40
2389;DHT22;1205;47.984;7.668;2022-08-19T11:54:16;26.10;99.00
2389;DHT22;1205;47.984;7.668;2022-08-19T11:56:42;26.30;99.10
2389;DHT22;1205;47.984;7.668;2022-08-19T11:59:08;26.40;98.20
2389;DHT22;1205;47.984;7.668;2022-08-19T12:01:35;26.50;98.50
2389;DHT22;1205;47.984;7.668;2022-08-19T12:04:01;26.80;98.10
2389;DHT22;1205;47.984;7.668;2022-08-19T12:06:31;26.70;97.00
2389;DHT22;1205;47.984;7.668;2022-08-19T12:09:04;26.90;97.40
2389;DHT22;1205;47.984;7.668;2022-08-19T12:11:31;26.90;97.40
2389;DHT22;1205;47.984;7.668;2022-08-19T12:13:56;26.80;97.20
2389;DHT22;1205;47.984;7.668;2022-08-19T12:16:27;26.80;97.60
2389;DHT22;1205;47.984;7.668;2022-08-19T12:18:54;26.60;97.10
2389;DHT22;1205;47.984;7.668;2022-08-19T12:21:26;26.10;97.10
2389;DHT22;1205;47.984;7.668;2022-08-19T12:23:54;25.80;97.80
2389;DHT22;1205;47.984;7.668;2022-08-19T12:26:20;25.60;98.30
2389;DHT22;1205;47.984;7.668;2022-08-19T12:28:46;25.40;98.60
2389;DHT22;1205;47.984;7.668;2022-08-19T12:31:14;25.20;98.80
2389;DHT22;1205;47.984;7.668;2022-08-19T12:33:41;24.70;99.90
2389;DHT22;1205;47.984;7.668;2022-08-19T12:36:09;24.30;99.60
2389;DHT22;1205;47.984;7.668;2022-08-19T12:38:36;24.10;99.90
2389;DHT22;1205;47.984;7.668;2022-08-19T12:41:02;23.90;99.90
2389;DHT22;1205;47.984;7.668;2022-08-19T12:43:30;23.90;99.90
2389;DHT22;1205;47.984;7.668;2022-08-19T12:45:56;24.10;99.90
2389;DHT22;1205;47.984;7.668;2022-08-19T12:48:22;24.00;99.90
2389;DHT22;1205;47.984;7.668;2022-08-19T12:50:48;24.20;99.90
2389;DHT22;1205;47.984;7.668;2022-08-19T12:53:14;24.30;99.90
2389;DHT22;1205;47.984;7.668;2022-08-19T12:55:41;24.50;99.90
2389;DHT22;1205;47.984;7.668;2022-08-19T12:58:08;24.60;99.90
2389;DHT22;1205;47.984;7.668;2022-08-19T13:00:34;24.80;99.90
2389;DHT22;1205;47.984;7.668;2022-08-19T13:03:00;24.80;99.90
2389;DHT22;1205;47.984;7.668;2022-08-19T13:05:28;24.90;99.90
2389;DHT22;1205;47.984;7.668;2022-08-19T13:07:57;25.00;99.90
2389;DHT22;1205;47.984;7.668;2022-08-19T13:10:27;25.00;99.90
2389;DHT22;1205;47.984;7.668;2022-08-19T13:12:54;25.20;99.90
2389;DHT22;1205;47.984;7.668;2022-08-19T13:15:22;25.10;99.90
2389;DHT22;1205;47.984;7.668;2022-08-19T13:17:50;25.20;99.90
2389;DHT22;1205;47.984;7.668;2022-08-19T13:20:18;25.20;99.90
2389;DHT22;1205;47.984;7.668;2022-08-19T13:22:44;25.20;99.90
2389;DHT22;1205;47.984;7.668;2022-08-19T13:25:12;25.10;99.90
2389;DHT22;1205;47.984;7.668;2022-08-19T13:27:39;25.20;99.90
2389;DHT22;1205;47.984;7.668;2022-08-19T13:30:08;25.30;99.90
2389;DHT22;1205;47.984;7.668;2022-08-19T13:32:53;25.30;99.90
2389;DHT22;1205;47.984;7.668;2022-08-19T13:35:38;25.30;99.90
2389;DHT22;1205;47.984;7.668;2022-08-19T13:38:04;25.20;99.80
2389;DHT22;1205;47.984;7.668;2022-08-19T13:40:31;25.20;99.90
2389;DHT22;1205;47.984;7.668;2022-08-19T13:42:59;25.20;99.60
2389;DHT22;1205;47.984;7.668;2022-08-19T13:45:27;25.10;99.90
2389;DHT22;1205;47.984;7.668;2022-08-19T13:47:55;25.10;99.90
2389;DHT22;1205;47.984;7.668;2022-08-19T13:50:24;25.20;99.90
2389;DHT22;1205;47.984;7.668;2022-08-19T13:52:54;25.30;99.90
2389;DHT22;1205;47.984;7.668;2022-08-19T13:55:20;25.20;99.90
2389;DHT22;1205;47.984;7.668;2022-08-19T13:57:50;25.40;99.90
2389;DHT22;1205;47.984;7.668;2022-08-19T14:00:18;25.30;99.90
2389;DHT22;1205;47.984;7.668;2022-08-19T14:02:45;25.10;99.90
2389;DHT22;1205;47.984;7.668;2022-08-19T14:05:13;25.00;99.90
2389;DHT22;1205;47.984;7.668;2022-08-19T14:07:39;25.00;99.90
2389;DHT22;1205;47.984;7.668;2022-08-19T14:10:07;25.30;99.90
2389;DHT22;1205;47.984;7.668;2022-08-19T14:12:33;25.40;99.90
2389;DHT22;1205;47.984;7.668;2022-08-19T14:15:00;25.60;99.90
2389;DHT22;1205;47.984;7.668;2022-08-19T14:17:26;25.80;99.90
2389;DHT22;1205;47.984;7.668;2022-08-19T14:19:59;25.90;99.90
2389;DHT22;1205;47.984;7.668;2022-08-19T14:22:29;25.90;99.90
2389;DHT22;1205;47.984;7.668;2022-08-19T14:24:56;25.80;99.40
2389;DHT22;1205;47.984;7.668;2022-08-19T14:27:22;25.80;99.90
2389;DHT22;1205;47.984;7.668;2022-08-19T14:29:51;25.70;99.10
2389;DHT22;1205;47.984;7.668;2022-08-19T14:32:16;25.60;98.70
2389;DHT22;1205;47.984;7.668;2022-08-19T14:34:42;25.40;99.40
2389;DHT22;1205;47.984;7.668;2022-08-19T14:37:11;25.40;99.20
2389;DHT22;1205;47.984;7.668;2022-08-19T14:39:39;25.50;99.90
2389;DHT22;1205;47.984;7.668;2022-08-19T14:42:07;25.40;98.50
2389;DHT22;1205;47.984;7.668;2022-08-19T14:44:34;25.30;98.50
2389;DHT22;1205;47.984;7.668;2022-08-19T14:46:59;25.00;98.30
2389;DHT22;1205;47.984;7.668;2022-08-19T14:49:25;24.90;98.60
2389;DHT22;1205;47.984;7.668;2022-08-19T14:51:51;24.80;98.40
2389;DHT22;1205;47.984;7.668;2022-08-19T14:54:16;24.70;98.80
2389;DHT22;1205;47.984;7.668;2022-08-19T14:56:42;24.80;99.50
2389;DHT22;1205;47.984;7.668;2022-08-19T14:59:08;24.80;99.00
2389;DHT22;1205;47.984;7.668;2022-08-19T15:01:34;24.80;98.50
2389;DHT22;1205;47.984;7.668;2022-08-19T15:04:00;24.90;99.00
2389;DHT22;1205;47.984;7.668;2022-08-19T15:06:26;24.90;99.50
2389;DHT22;1205;47.984;7.668;2022-08-19T15:08:53;24.90;99.50
2389;DHT22;1205;47.984;7.668;2022-08-19T15:11:22;24.80;99.90
2389;DHT22;1205;47.984;7.668;2022-08-19T15:13:48;24.80;99.70
2389;DHT22;1205;47.984;7.668;2022-08-19T15:16:16;24.70;99.20
2389;DHT22;1205;47.984;7.668;2022-08-19T15:18:42;24.70;99.30
2389;DHT22;1205;47.984;7.668;2022-08-19T15:21:10;24.60;99.30
2389;DHT22;1205;47.984;7.668;2022-08-19T15:23:38;24.60;99.60
2389;DHT22;1205;47.984;7.668;2022-08-19T15:26:04;24.60;99.60
2389;DHT22;1205;47.984;7.668;2022-08-19T15:28:32;24.70;99.90
2389;DHT22;1205;47.984;7.668;2022-08-19T15:30:58;24.80;99.90
2389;DHT22;1205;47.984;7.668;2022-08-19T15:33:24;24.80;99.90
2389;DHT22;1205;47.984;7.668;2022-08-19T15:35:50;24.80;99.90
2389;DHT22;1205;47.984;7.668;2022-08-19T15:38:17;24.80;99.90
2389;DHT22;1205;47.984;7.668;2022-08-19T15:40:48;24.70;99.90
2389;DHT22;1205;47.984;7.668;2022-08-19T15:43:15;24.70;99.90
2389;DHT22;1205;47.984;7.668;2022-08-19T15:45:43;24.60;99.90
2389;DHT22;1205;47.984;7.668;2022-08-19T15:48:09;24.80;99.90
2389;DHT22;1205;47.984;7.668;2022-08-19T15:50:35;24.70;99.90
2389;DHT22;1205;47.984;7.668;2022-08-19T15:53:05;24.60;99.90
2389;DHT22;1205;47.984;7.668;2022-08-19T15:55:33;24.80;99.90
2389;DHT22;1205;47.984;7.668;2022-08-19T15:58:03;24.90;99.90
2389;DHT22;1205;47.984;7.668;2022-08-19T16:00:48;24.90;99.90
2389;DHT22;1205;47.984;7.668;2022-08-19T16:03:32;24.90;99.90
2389;DHT22;1205;47.984;7.668;2022-08-19T16:06:16;24.90;99.90
2389;DHT22;1205;47.984;7.668;2022-08-19T16:08:56;25.00;99.90
2389;DHT22;1205;47.984;7.668;2022-08-19T16:11:23;25.00;99.90
2389;DHT22;1205;47.984;7.668;2022-08-19T16:13:51;25.00;99.90